Time;durP1;ratioP1;P1;durP2;ratioP2;P2;SDS_P1;SDS_P2;PMS_P1;PMS_P2;Temp;Humidity;BMP_temperature;BMP_pressure;BME280_temperature;BME280_humidity;BME280_pressure;Samples;Min_cycle;Max_cycle;Signal;HPM_P1;HPM_P2
2024/02/24 00:01:59;;;;;;;10.43;3.43;;;2.50;98.00;;;;;;4992180;28;20970;-73
2024/02/24 00:04:26;;;;;;;7.30;3.17;;;2.60;98.00;;;;;;4991681;28;20471;-73
2024/02/24 00:06:53;;;;;;;11.57;3.90;;;2.70;98.00;;;;;;4992345;28;20509;-72
2024/02/24 00:09:20;;;;;;;8.43;3.33;;;2.70;98.00;;;;;;4992121;28;21155;-72
2024/02/24 00:11:48;;;;;;;8.03;3.70;;;2.90;98.00;;;;;;4992242;28;20459;-73
2024/02/24 00:14:16;;;;;;;14.77;4.77;;;2.80;98.00;;;;;;4992041;28;20464;-72
2024/02/24 00:16:44;;;;;;;14.90;5.07;;;2.70;98.00;;;;;;4991958;28;20486;-73
2024/02/24 00:19:11;;;;;;;11.10;4.17;;;2.60;98.00;;;;;;4991937;28;20468;-73
2024/02/24 00:21:39;;;;;;;8.00;3.50;;;2.60;98.00;;;;;;4992193;28;20840;-72
2024/02/24 00:24:06;;;;;;;10.60;3.40;;;2.60;98.00;;;;;;4991934;28;20466;-73
2024/02/24 00:26:33;;;;;;;13.27;4.93;;;2.50;98.00;;;;;;4991996;28;20461;-72
2024/02/24 00:29:00;;;;;;;11.23;4.50;;;2.60;98.00;;;;;;4991869;28;20456;-72
2024/02/24 00:31:29;;;;;;;17.93;5.40;;;2.60;98.00;;;;;;4992109;28;20993;-72
2024/02/24 00:33:56;;;;;;;16.97;4.83;;;2.70;98.00;;;;;;4991979;28;20564;-72
2024/02/24 00:36:23;;;;;;;13.43;4.27;;;2.80;98.00;;;;;;4991943;28;20858;-73
2024/02/24 00:38:50;;;;;;;9.00;3.80;;;2.90;98.00;;;;;;4992027;28;20497;-72
2024/02/24 00:41:17;;;;;;;7.70;3.60;;;2.90;98.00;;;;;;4992030;28;20455;-72
2024/02/24 00:43:46;;;;;;;6.73;3.37;;;2.80;98.00;;;;;;4991914;28;20954;-72
2024/02/24 00:46:13;;;;;;;6.90;3.03;;;2.70;98.00;;;;;;4974588;28;20467;-73
2024/02/24 00:48:41;;;;;;;10.30;4.17;;;2.60;98.00;;;;;;4997091;28;20841;-73
2024/02/24 00:51:08;;;;;;;11.20;4.70;;;2.40;98.00;;;;;;5009164;28;20828;-72
2024/02/24 00:53:36;;;;;;;12.83;4.90;;;2.20;98.00;;;;;;5009923;28;20466;-73
2024/02/24 00:56:03;;;;;;;16.37;6.10;;;2.10;98.00;;;;;;5010373;28;20487;-73
2024/02/24 00:58:30;;;;;;;10.20;4.20;;;2.10;98.00;;;;;;5011254;28;20454;-72
2024/02/24 01:00:57;;;;;;;10.00;3.77;;;2.10;98.00;;;;;;4993829;28;20488;-72
2024/02/24 01:03:28;;;;;;;10.80;4.37;;;2.20;98.00;;;;;;5011414;28;20857;-72
2024/02/24 01:05:57;;;;;;;8.27;3.30;;;2.10;98.00;;;;;;5011528;28;20450;-73
2024/02/24 01:08:24;;;;;;;8.10;3.13;;;2.20;98.00;;;;;;5011252;28;20514;-72
2024/02/24 01:10:51;;;;;;;8.50;3.07;;;2.20;98.00;;;;;;5013523;28;20464;-73
2024/02/24 01:13:18;;;;;;;4.93;2.70;;;2.30;98.00;;;;;;5014790;28;20450;-73
2024/02/24 01:15:46;;;;;;;5.40;2.93;;;2.40;98.00;;;;;;4997370;28;20572;-73
2024/02/24 01:18:13;;;;;;;3.40;2.33;;;2.40;98.00;;;;;;5014627;28;20466;-73
2024/02/24 01:20:40;;;;;;;5.23;2.87;;;2.30;98.00;;;;;;5014723;28;20453;-73
2024/02/24 01:23:08;;;;;;;4.83;2.60;;;2.30;98.00;;;;;;5014582;28;20456;-72
2024/02/24 01:25:36;;;;;;;4.33;2.80;;;2.50;98.00;;;;;;5014974;28;20486;-73
2024/02/24 01:28:03;;;;;;;5.07;2.80;;;2.50;98.00;;;;;;5014174;28;20462;-72
2024/02/24 01:30:30;;;;;;;5.23;2.70;;;2.50;98.00;;;;;;5013913;28;20462;-71
2024/02/24 01:32:58;;;;;;;5.53;2.70;;;2.60;98.00;;;;;;5014851;28;20801;-72
2024/02/24 01:35:24;;;;;;;5.40;2.90;;;2.50;98.00;;;;;;5013766;28;20485;-73
2024/02/24 01:37:52;;;;;;;5.87;3.10;;;2.50;98.00;;;;;;5013934;28;20835;-72
2024/02/24 01:40:20;;;;;;;5.03;2.93;;;2.50;98.00;;;;;;5014006;28;20510;-71
2024/02/24 01:42:47;;;;;;;5.20;2.50;;;2.60;98.00;;;;;;5014151;28;20531;-72
2024/02/24 01:45:14;;;;;;;4.20;2.53;;;2.80;98.00;;;;;;5013994;28;20472;-72
2024/02/24 01:47:42;;;;;;;6.30;2.87;;;2.80;98.00;;;;;;5013747;28;20459;-72
2024/02/24 01:50:11;;;;;;;8.00;3.43;;;2.70;98.00;;;;;;5014011;28;20498;-72
2024/02/24 01:52:38;;;;;;;16.97;5.70;;;2.50;98.00;;;;;;5013997;28;20457;-73
2024/02/24 01:55:07;;;;;;;11.47;3.90;;;2.30;98.00;;;;;;5013906;28;21005;-72
2024/02/24 01:57:41;;;;;;;7.00;3.07;;;2.40;98.00;;;;;;5013777;28;20510;-72
2024/02/24 02:00:11;;;;;;;7.53;3.10;;;2.20;98.00;;;;;;5013813;28;20459;-72
2024/02/24 02:02:38;;;;;;;5.53;2.83;;;2.10;98.00;;;;;;5013833;28;20966;-72
2024/02/24 02:05:07;;;;;;;3.70;2.60;;;2.10;98.00;;;;;;5013528;28;20456;-72
2024/02/24 02:07:36;;;;;;;6.37;2.90;;;2.00;98.00;;;;;;5013143;28;20451;-72
2024/02/24 02:10:07;;;;;;;8.87;3.23;;;2.00;98.00;;;;;;4995935;28;20460;-72
2024/02/24 02:12:35;;;;;;;5.20;3.13;;;2.10;98.00;;;;;;5013528;28;20504;-73
2024/02/24 02:15:05;;;;;;;5.83;3.03;;;2.20;98.00;;;;;;5013746;28;20454;-72
2024/02/24 02:17:32;;;;;;;5.20;3.03;;;2.40;98.00;;;;;;5013040;28;20499;-72
2024/02/24 02:20:04;;;;;;;5.50;2.63;;;2.50;98.00;;;;;;5013592;28;20458;-71
2024/02/24 02:22:33;;;;;;;4.67;2.70;;;2.60;98.00;;;;;;5013329;28;20469;-72
2024/02/24 02:25:00;;;;;;;5.57;2.83;;;2.40;98.00;;;;;;5012855;28;20461;-73
2024/02/24 02:27:27;;;;;;;7.00;2.93;;;2.30;98.00;;;;;;5013092;28;20469;-72
2024/02/24 02:29:54;;;;;;;5.40;2.77;;;2.30;98.00;;;;;;5013352;28;20454;-72
2024/02/24 02:32:21;;;;;;;7.00;3.43;;;2.40;98.00;;;;;;5013229;28;20462;-73
2024/02/24 02:34:49;;;;;;;7.00;3.33;;;2.30;98.00;;;;;;5013252;28;20798;-72
2024/02/24 02:37:17;;;;;;;7.00;3.10;;;2.10;98.00;;;;;;5013134;28;20572;-72
2024/02/24 02:39:45;;;;;;;6.47;3.00;;;2.30;98.00;;;;;;5012374;28;20930;-72
2024/02/24 02:42:14;;;;;;;4.50;2.70;;;2.50;98.00;;;;;;4995644;28;20445;-72
2024/02/24 02:44:41;;;;;;;10.83;3.27;;;2.40;98.00;;;;;;5013011;28;20446;-72
2024/02/24 02:47:08;;;;;;;8.97;3.20;;;2.30;98.00;;;;;;4995340;28;20556;-72
2024/02/24 02:49:35;;;;;;;5.47;2.77;;;2.10;98.00;;;;;;5012680;28;20460;-72
2024/02/24 02:52:03;;;;;;;4.63;2.70;;;2.10;98.00;;;;;;5012802;28;20459;-72
2024/02/24 02:54:30;;;;;;;4.70;2.47;;;2.20;98.00;;;;;;5012529;28;20452;-72
2024/02/24 02:56:58;;;;;;;6.80;3.10;;;2.20;98.00;;;;;;5012703;28;20512;-72
2024/02/24 02:59:25;;;;;;;5.33;2.90;;;2.40;98.00;;;;;;5012694;28;20475;-72
2024/02/24 03:01:54;;;;;;;6.43;3.10;;;2.50;98.00;;;;;;5012544;28;20455;-72
2024/02/24 03:04:21;;;;;;;7.13;3.03;;;2.30;98.00;;;;;;5012562;28;20471;-73
2024/02/24 03:06:48;;;;;;;4.77;3.00;;;2.30;98.00;;;;;;5011850;28;20469;-73
2024/02/24 03:09:16;;;;;;;5.50;3.20;;;2.30;98.00;;;;;;4995097;28;20468;-72
2024/02/24 03:11:44;;;;;;;9.40;3.33;;;2.10;98.00;;;;;;4995136;28;20461;-72
2024/02/24 03:14:12;;;;;;;5.37;2.90;;;2.00;98.00;;;;;;5012382;28;20460;-73
2024/02/24 03:16:39;;;;;;;5.03;2.40;;;2.10;98.00;;;;;;5012898;28;20484;-72
2024/02/24 03:19:08;;;;;;;6.93;3.33;;;2.20;98.00;;;;;;5012556;28;20453;-72
2024/02/24 03:21:36;;;;;;;4.97;3.00;;;2.20;98.00;;;;;;5012417;28;20456;-73
2024/02/24 03:24:05;;;;;;;8.93;4.03;;;2.30;98.00;;;;;;5012535;28;20531;-72
2024/02/24 03:26:33;;;;;;;5.00;2.83;;;2.30;98.00;;;;;;5012315;28;20444;-72
2024/02/24 03:29:00;;;;;;;6.87;3.40;;;2.30;98.00;;;;;;5012066;28;20464;-72
2024/02/24 03:31:28;;;;;;;6.37;2.73;;;2.10;98.00;;;;;;5012248;28;20456;-72
2024/02/24 03:33:55;;;;;;;7.13;3.10;;;1.90;98.00;;;;;;5011656;28;20828;-72
2024/02/24 03:36:23;;;;;;;5.73;3.03;;;1.70;98.00;;;;;;5011946;28;20483;-72
2024/02/24 03:38:50;;;;;;;6.23;3.43;;;1.70;98.00;;;;;;5011989;28;20449;-72
2024/02/24 03:41:17;;;;;;;7.27;3.30;;;1.70;98.00;;;;;;5011383;28;20448;-72
2024/02/24 03:43:45;;;;;;;6.77;3.27;;;1.80;98.00;;;;;;5011807;28;20523;-72
2024/02/24 03:46:12;;;;;;;5.47;3.27;;;1.90;98.00;;;;;;5011928;28;20470;-73
2024/02/24 03:48:41;;;;;;;5.67;3.10;;;1.90;98.00;;;;;;4993785;28;21051;-72
2024/02/24 03:51:08;;;;;;;5.50;2.80;;;1.80;98.00;;;;;;5011892;28;20459;-72
2024/02/24 03:53:35;;;;;;;8.73;3.40;;;1.90;98.00;;;;;;5012067;28;20452;-72
2024/02/24 03:56:02;;;;;;;5.67;3.10;;;1.90;98.00;;;;;;5010557;28;20452;-73
2024/02/24 03:58:31;;;;;;;5.40;3.13;;;2.10;98.00;;;;;;5011604;28;20506;-72
2024/02/24 04:00:58;;;;;;;5.50;3.47;;;2.20;98.00;;;;;;5011854;28;20451;-72
2024/02/24 04:03:25;;;;;;;8.87;3.83;;;2.10;98.00;;;;;;5011743;28;20527;-73
2024/02/24 04:05:53;;;;;;;6.63;3.70;;;2.00;98.00;;;;;;5011830;28;20449;-73
2024/02/24 04:08:21;;;;;;;7.63;3.33;;;2.00;98.00;;;;;;5011572;28;20456;-72
2024/02/24 04:10:53;;;;;;;7.23;3.20;;;1.90;98.00;;;;;;5011949;28;20483;-72
2024/02/24 04:13:21;;;;;;;8.17;3.50;;;2.00;98.00;;;;;;5011028;28;20455;-72
2024/02/24 04:15:48;;;;;;;7.97;3.40;;;2.10;98.00;;;;;;5011380;28;20464;-72
2024/02/24 04:18:15;;;;;;;8.53;3.40;;;2.30;98.00;;;;;;5011628;28;20825;-72
2024/02/24 04:20:44;;;;;;;4.77;2.90;;;2.20;98.00;;;;;;5011823;28;20457;-72
2024/02/24 04:23:13;;;;;;;7.20;3.37;;;2.10;98.00;;;;;;5011511;28;20464;-72
2024/02/24 04:25:41;;;;;;;4.67;2.60;;;2.10;98.00;;;;;;5011573;28;20451;-73
2024/02/24 04:28:09;;;;;;;7.07;3.53;;;2.10;98.00;;;;;;5011588;28;20475;-72
2024/02/24 04:30:37;;;;;;;5.73;2.90;;;1.90;98.00;;;;;;5011698;28;20448;-72
2024/02/24 04:33:04;;;;;;;4.80;3.07;;;2.10;98.00;;;;;;5011522;28;20460;-73
2024/02/24 04:35:32;;;;;;;6.37;3.10;;;1.90;98.00;;;;;;5011681;28;20508;-72
2024/02/24 04:38:05;;;;;;;6.53;3.23;;;1.80;98.00;;;;;;5011381;28;20576;-72
2024/02/24 04:40:34;;;;;;;4.67;3.03;;;1.70;98.00;;;;;;4994928;28;20461;-72
2024/02/24 04:43:01;;;;;;;6.43;2.87;;;1.80;98.00;;;;;;5011578;28;20458;-72
2024/02/24 04:45:28;;;;;;;7.10;3.50;;;1.70;98.00;;;;;;5013158;28;20465;-72
2024/02/24 04:47:56;;;;;;;4.30;2.73;;;1.80;98.00;;;;;;5014971;28;20458;-71
2024/02/24 04:50:23;;;;;;;6.63;2.83;;;2.00;98.00;;;;;;5014547;28;20448;-71
2024/02/24 04:52:50;;;;;;;4.40;2.93;;;2.10;98.00;;;;;;5014770;28;21013;-72
2024/02/24 04:55:17;;;;;;;8.80;3.10;;;2.10;98.00;;;;;;5015270;28;20487;-72
2024/02/24 04:57:45;;;;;;;6.60;3.00;;;2.30;98.00;;;;;;5015176;28;20496;-72
2024/02/24 05:00:13;;;;;;;6.90;3.10;;;2.40;98.00;;;;;;5014329;28;20453;-72
2024/02/24 05:02:40;;;;;;;5.50;3.17;;;2.30;98.00;;;;;;5014807;28;20460;-72
2024/02/24 05:05:09;;;;;;;4.20;2.70;;;2.30;98.00;;;;;;5015391;28;20975;-72
2024/02/24 05:07:37;;;;;;;5.93;2.90;;;2.40;98.00;;;;;;5014907;28;20759;-72
2024/02/24 05:10:04;;;;;;;8.40;3.07;;;2.40;98.00;;;;;;5014718;28;20475;-72
2024/02/24 05:12:31;;;;;;;4.83;2.63;;;2.40;98.00;;;;;;5015093;28;20464;-72
2024/02/24 05:15:00;;;;;;;6.30;2.70;;;2.60;98.00;;;;;;5014717;28;20456;-72
2024/02/24 05:17:27;;;;;;;4.57;2.70;;;2.60;98.00;;;;;;5014428;28;20997;-72
2024/02/24 05:19:54;;;;;;;6.43;2.90;;;2.50;98.00;;;;;;5014505;28;20514;-72
2024/02/24 05:22:21;;;;;;;4.73;2.80;;;2.40;98.00;;;;;;5014581;28;20462;-73
2024/02/24 05:24:48;;;;;;;4.70;2.80;;;2.30;98.00;;;;;;5014525;28;20826;-73
2024/02/24 05:27:15;;;;;;;4.50;2.70;;;2.40;98.00;;;;;;5014411;28;20456;-72
2024/02/24 05:29:46;;;;;;;8.57;4.10;;;2.30;98.00;;;;;;5014126;28;20951;-72
2024/02/24 05:32:16;;;;;;;8.70;3.37;;;2.20;98.00;;;;;;5014189;28;20455;-72
2024/02/24 05:34:44;;;;;;;5.93;2.77;;;2.20;98.00;;;;;;5014364;28;20453;-72
2024/02/24 05:37:11;;;;;;;10.00;3.17;;;2.20;98.00;;;;;;5014345;28;20562;-72
2024/02/24 05:39:47;;;;;;;4.57;2.70;;;2.10;98.00;;;;;;5014536;28;20866;-72
2024/02/24 05:42:14;;;;;;;6.47;2.97;;;2.20;98.00;;;;;;5014324;28;20451;-72
2024/02/24 05:44:43;;;;;;;6.07;2.80;;;2.20;98.00;;;;;;5013594;28;20465;-72
2024/02/24 05:47:10;;;;;;;5.27;2.73;;;2.10;98.00;;;;;;5014090;28;20472;-72
2024/02/24 05:49:40;;;;;;;5.57;2.73;;;2.10;98.00;;;;;;5014127;28;20461;-71
2024/02/24 05:52:07;;;;;;;5.07;2.93;;;2.20;98.00;;;;;;5014145;28;20448;-72
2024/02/24 05:54:34;;;;;;;4.20;2.63;;;2.20;98.00;;;;;;5013608;28;20970;-72
2024/02/24 05:57:04;;;;;;;3.83;2.50;;;2.20;98.00;;;;;;5013079;28;20518;-72
2024/02/24 05:59:31;;;;;;;4.90;2.63;;;2.30;98.00;;;;;;5014075;28;20506;-72
2024/02/24 06:02:00;;;;;;;4.83;2.73;;;2.50;98.00;;;;;;5014047;28;20452;-72
2024/02/24 06:04:28;;;;;;;5.57;2.90;;;2.60;98.00;;;;;;5013816;28;20449;-72
2024/02/24 06:06:57;;;;;;;3.83;2.67;;;2.50;98.00;;;;;;5014003;28;20457;-72
2024/02/24 06:09:24;;;;;;;4.73;2.70;;;2.60;98.00;;;;;;5013767;28;20869;-71
2024/02/24 06:11:51;;;;;;;5.27;2.60;;;2.60;98.00;;;;;;5013722;28;20461;-73
2024/02/24 06:14:18;;;;;;;5.27;2.60;;;2.60;98.00;;;;;;5013471;28;20453;-73
2024/02/24 06:16:45;;;;;;;5.37;3.03;;;2.60;98.00;;;;;;5013608;28;20452;-72
2024/02/24 06:19:12;;;;;;;5.30;2.87;;;2.60;98.00;;;;;;5013420;28;20829;-73
2024/02/24 06:21:40;;;;;;;4.40;2.77;;;2.50;98.00;;;;;;5013717;28;20476;-72
2024/02/24 06:24:09;;;;;;;5.23;3.13;;;2.60;98.00;;;;;;5013536;28;20544;-72
2024/02/24 06:26:36;;;;;;;5.07;2.87;;;2.40;98.00;;;;;;5013365;28;20557;-72
2024/02/24 06:29:04;;;;;;;6.80;3.10;;;2.40;98.00;;;;;;5013446;28;20449;-72
2024/02/24 06:31:31;;;;;;;7.73;3.00;;;2.40;98.00;;;;;;5012605;28;20514;-72
2024/02/24 06:33:58;;;;;;;6.27;3.07;;;2.60;98.00;;;;;;5013432;28;20461;-72
2024/02/24 06:36:25;;;;;;;4.67;2.60;;;2.70;98.00;;;;;;5013490;28;20448;-72
2024/02/24 06:38:52;;;;;;;6.93;3.13;;;2.80;98.00;;;;;;5013240;28;20486;-72
2024/02/24 06:41:23;;;;;;;4.53;2.60;;;2.90;98.00;;;;;;5013458;28;20454;-72
2024/02/24 06:43:51;;;;;;;5.33;2.73;;;3.00;98.00;;;;;;5013428;28;20528;-72
2024/02/24 06:46:18;;;;;;;6.37;2.80;;;3.00;98.00;;;;;;5012715;28;20832;-72
2024/02/24 06:48:46;;;;;;;4.67;2.57;;;3.10;98.00;;;;;;5013019;28;20479;-71
2024/02/24 06:51:14;;;;;;;5.57;3.00;;;3.20;98.00;;;;;;5011496;28;20461;-72
2024/02/24 06:53:43;;;;;;;4.30;2.70;;;3.20;98.00;;;;;;5012407;28;20493;-72
2024/02/24 06:56:10;;;;;;;6.40;2.80;;;3.20;98.00;;;;;;5013439;28;20848;-72
2024/02/24 06:58:39;;;;;;;5.13;3.03;;;3.20;98.00;;;;;;4995669;28;21206;-72
2024/02/24 07:01:06;;;;;;;4.90;3.10;;;3.20;98.00;;;;;;5015317;28;20444;-81
2024/02/24 07:03:33;;;;;;;5.90;3.73;;;3.20;98.00;;;;;;5015809;28;20457;-81
2024/02/24 07:06:01;;;;;;;5.97;3.00;;;3.10;98.00;;;;;;5015584;28;20952;-81
2024/02/24 07:08:28;;;;;;;5.10;2.70;;;3.20;98.00;;;;;;5015146;28;20516;-81
2024/02/24 07:10:55;;;;;;;8.60;3.20;;;3.30;98.00;;;;;;5016648;28;20455;-81
2024/02/24 07:13:23;;;;;;;3.60;2.43;;;3.40;98.00;;;;;;5016005;28;20443;-81
2024/02/24 07:15:52;;;;;;;4.17;2.00;;;3.60;98.00;;;;;;5016169;28;20462;-82
2024/02/24 07:18:19;;;;;;;1.97;1.70;;;3.70;98.00;;;;;;5013772;28;20484;-80
2024/02/24 07:20:47;;;;;;;3.00;2.03;;;3.80;98.00;;;;;;5013201;28;20462;-80
2024/02/24 07:23:14;;;;;;;2.00;1.50;;;3.90;98.00;;;;;;4995671;28;20470;-81
2024/02/24 07:25:41;;;;;;;2.80;1.87;;;4.10;98.00;;;;;;5013340;28;20453;-82
2024/02/24 07:28:08;;;;;;;1.97;1.70;;;4.20;98.00;;;;;;5012868;28;20556;-81
2024/02/24 07:30:35;;;;;;;2.47;1.57;;;4.30;98.00;;;;;;5013699;28;20497;-81
2024/02/24 07:33:04;;;;;;;3.70;1.90;;;4.50;98.00;;;;;;5012707;28;20463;-80
2024/02/24 07:35:31;;;;;;;2.03;1.63;;;4.50;98.00;;;;;;5012650;28;20463;-80
2024/02/24 07:37:58;;;;;;;3.87;2.20;;;4.60;98.00;;;;;;5012483;28;20486;-81
2024/02/24 07:40:25;;;;;;;3.07;1.70;;;4.80;98.00;;;;;;5012507;28;20477;-81
2024/02/24 07:42:54;;;;;;;2.10;1.53;;;4.90;98.00;;;;;;5012801;28;20447;-81
2024/02/24 07:45:22;;;;;;;2.03;1.80;;;4.90;98.00;;;;;;5012509;28;20475;-81
2024/02/24 07:47:49;;;;;;;2.47;1.60;;;5.00;98.00;;;;;;5012432;28;20552;-81
2024/02/24 07:50:18;;;;;;;2.27;1.67;;;5.20;98.00;;;;;;5012611;28;21010;-80
2024/02/24 07:52:45;;;;;;;2.33;1.60;;;5.30;98.00;;;;;;5013364;28;20453;-80
2024/02/24 07:55:12;;;;;;;1.70;1.40;;;5.30;98.00;;;;;;5012914;28;20988;-80
2024/02/24 07:57:39;;;;;;;2.00;1.60;;;5.30;98.00;;;;;;5013371;28;20488;-80
2024/02/24 08:00:12;;;;;;;1.67;1.57;;;5.50;98.00;;;;;;5012730;28;20798;-81
2024/02/24 08:02:41;;;;;;;1.93;1.47;;;5.50;98.00;;;;;;5013228;28;20517;-81
2024/02/24 08:05:08;;;;;;;1.60;1.30;;;5.50;98.00;;;;;;5012878;28;20859;-81
2024/02/24 08:07:36;;;;;;;5.03;2.60;;;5.70;98.00;;;;;;5012994;28;20442;-80
2024/02/24 08:10:05;;;;;;;3.83;2.33;;;5.60;98.00;;;;;;5012675;28;20946;-81
2024/02/24 08:12:32;;;;;;;3.53;2.50;;;5.60;98.00;;;;;;5012902;28;20462;-81
2024/02/24 08:14:59;;;;;;;3.23;2.10;;;5.60;98.00;;;;;;5011625;28;20459;-81
2024/02/24 08:17:28;;;;;;;3.03;1.83;;;5.60;98.00;;;;;;5012802;28;20616;-81
2024/02/24 08:19:55;;;;;;;3.47;2.17;;;5.50;98.00;;;;;;5005084;28;20573;-81
2024/02/24 08:22:52;;;;;;;2.87;1.93;;;5.50;98.00;;;;;;4997117;28;20965;-81
2024/02/24 08:25:19;;;;;;;2.00;1.60;;;5.70;98.00;;;;;;4995615;28;20532;-81
2024/02/24 08:27:46;;;;;;;4.90;1.73;;;5.60;98.00;;;;;;4996410;28;20462;-81
2024/02/24 08:30:14;;;;;;;1.77;1.30;;;5.70;98.00;;;;;;4996550;28;20455;-81
2024/02/24 08:32:41;;;;;;;2.60;1.60;;;5.70;98.00;;;;;;4979319;28;20464;-81
2024/02/24 08:35:09;;;;;;;2.27;1.30;;;5.80;98.00;;;;;;4997069;28;20464;-81
2024/02/24 08:37:36;;;;;;;1.60;1.43;;;5.80;98.00;;;;;;4995894;28;20481;-81
2024/02/24 08:40:06;;;;;;;2.00;1.40;;;5.90;98.00;;;;;;4996464;28;20459;-81
2024/02/24 08:42:33;;;;;;;1.30;1.30;;;6.00;98.00;;;;;;4996650;28;20871;-81
2024/02/24 08:45:00;;;;;;;1.50;1.50;;;6.00;98.00;;;;;;4996974;28;21047;-80
2024/02/24 08:47:27;;;;;;;2.23;1.50;;;6.00;98.00;;;;;;4996728;28;20464;-81
2024/02/24 08:49:54;;;;;;;1.53;1.40;;;6.10;98.00;;;;;;4996823;28;20832;-81
2024/02/24 08:52:21;;;;;;;3.40;1.60;;;6.10;98.00;;;;;;4996358;28;20828;-81
2024/02/24 08:54:48;;;;;;;1.50;1.40;;;6.20;98.00;;;;;;4996321;28;20466;-80
2024/02/24 08:57:17;;;;;;;1.70;1.40;;;6.20;98.00;;;;;;4996640;28;20875;-80
2024/02/24 08:59:45;;;;;;;2.23;1.47;;;6.10;98.00;;;;;;4995772;28;20487;-81
2024/02/24 09:02:12;;;;;;;1.77;1.30;;;6.20;98.00;;;;;;4996744;28;20834;-75
2024/02/24 09:04:39;;;;;;;1.63;1.23;;;6.10;98.00;;;;;;4996917;28;20460;-79
2024/02/24 09:07:06;;;;;;;1.73;1.40;;;6.10;98.00;;;;;;4996439;28;21028;-77
2024/02/24 09:09:34;;;;;;;1.60;1.20;;;6.30;98.00;;;;;;4996847;28;20464;-81
2024/02/24 09:12:02;;;;;;;2.43;1.40;;;6.40;98.00;;;;;;4990978;28;20483;-80
2024/02/24 09:14:31;;;;;;;1.50;1.30;;;6.60;98.00;;;;;;4996820;28;20458;-80
2024/02/24 09:16:58;;;;;;;2.07;1.40;;;6.90;98.00;;;;;;5013687;28;20464;-80
2024/02/24 09:19:26;;;;;;;1.93;1.23;;;7.10;98.00;;;;;;5015264;28;20527;-81
2024/02/24 09:21:53;;;;;;;1.20;1.20;;;7.30;98.00;;;;;;5015239;28;20451;-81
2024/02/24 09:24:20;;;;;;;1.20;1.20;;;7.40;98.00;;;;;;5013957;28;20445;-81
2024/02/24 09:26:47;;;;;;;1.43;1.30;;;7.50;98.00;;;;;;5014447;28;20459;-80
2024/02/24 09:29:16;;;;;;;1.47;1.10;;;7.60;98.00;;;;;;5013980;28;20461;-81
2024/02/24 09:31:45;;;;;;;2.17;1.60;;;7.70;98.00;;;;;;5014888;28;20799;-81
2024/02/24 09:34:12;;;;;;;1.50;1.27;;;7.80;98.00;;;;;;5014872;28;20454;-81
2024/02/24 09:36:40;;;;;;;1.47;1.10;;;7.80;98.00;;;;;;5015907;28;20444;-80
2024/02/24 09:39:07;;;;;;;1.40;1.20;;;8.00;98.00;;;;;;5014930;28;20486;-80
2024/02/24 09:41:34;;;;;;;2.20;1.27;;;8.10;98.00;;;;;;5014828;28;20488;-80
2024/02/24 09:44:02;;;;;;;2.40;1.47;;;8.20;98.00;;;;;;5016020;28;20455;-80
2024/02/24 09:46:29;;;;;;;1.40;1.23;;;8.30;98.00;;;;;;5014331;28;20875;-81
2024/02/24 09:48:58;;;;;;;1.60;1.40;;;8.60;98.00;;;;;;4989060;28;20447;-79
2024/02/24 09:51:27;;;;;;;3.00;1.40;;;8.70;98.00;;;;;;4995285;28;20460;-80
2024/02/24 09:53:54;;;;;;;1.40;1.30;;;8.70;98.00;;;;;;4995522;28;20452;-81
2024/02/24 09:56:24;;;;;;;2.00;1.40;;;8.90;98.00;;;;;;4995113;28;20463;-81
2024/02/24 09:58:53;;;;;;;2.03;1.33;;;8.90;98.00;;;;;;4994633;28;20488;-81
2024/02/24 10:01:21;;;;;;;1.80;1.30;;;9.10;98.00;;;;;;4994598;28;20536;-81
2024/02/24 10:03:48;;;;;;;2.00;1.43;;;9.50;98.00;;;;;;4994501;28;20452;-80
2024/02/24 10:06:17;;;;;;;2.13;1.50;;;9.80;98.00;;;;;;4977609;28;20521;-81
2024/02/24 10:08:45;;;;;;;1.40;1.40;;;10.10;98.00;;;;;;4994551;28;20485;-80
2024/02/24 10:11:13;;;;;;;1.60;1.20;;;10.10;98.00;;;;;;4994253;28;20449;-80
2024/02/24 10:13:40;;;;;;;1.90;1.27;;;10.10;98.00;;;;;;4993866;28;20449;-80
2024/02/24 10:16:08;;;;;;;2.37;1.40;;;9.90;98.00;;;;;;4993955;28;20464;-80
2024/02/24 10:18:40;;;;;;;1.40;1.10;;;9.90;98.00;;;;;;4993922;28;20488;-81
2024/02/24 10:21:07;;;;;;;2.10;1.40;;;9.90;98.00;;;;;;4994403;28;20488;-81
2024/02/24 10:23:35;;;;;;;1.77;1.40;;;9.60;98.00;;;;;;4994466;28;20461;-81
2024/02/24 10:26:07;;;;;;;1.70;1.30;;;9.60;98.00;;;;;;4994333;28;20452;-80
2024/02/24 10:28:36;;;;;;;1.50;1.20;;;9.50;98.00;;;;;;4994196;28;20954;-80
2024/02/24 10:31:04;;;;;;;1.70;1.30;;;9.40;98.00;;;;;;4994229;28;20463;-80
2024/02/24 10:33:31;;;;;;;1.50;1.30;;;9.40;98.00;;;;;;4994228;28;20518;-81
2024/02/24 10:35:59;;;;;;;2.13;1.23;;;9.60;98.00;;;;;;4994366;28;20460;-80
2024/02/24 10:38:30;;;;;;;1.20;1.10;;;9.70;98.00;;;;;;4994361;28;20491;-80
2024/02/24 10:41:00;;;;;;;1.50;1.20;;;9.60;98.00;;;;;;4994666;28;20801;-80
2024/02/24 10:43:29;;;;;;;1.50;1.17;;;9.70;98.00;;;;;;4994243;28;20499;-80
2024/02/24 10:45:57;;;;;;;1.53;1.20;;;9.60;98.00;;;;;;4976966;28;20824;-80
2024/02/24 10:48:25;;;;;;;1.60;1.37;;;9.70;98.00;;;;;;4994078;28;20453;-80
2024/02/24 10:50:52;;;;;;;1.60;1.27;;;9.90;98.00;;;;;;4976862;28;20944;-80
2024/02/24 10:53:27;;;;;;;1.50;1.10;;;10.20;98.00;;;;;;4993576;28;20452;-80
2024/02/24 10:55:56;;;;;;;1.50;1.20;;;10.30;98.00;;;;;;4994004;28;20543;-80
2024/02/24 10:58:24;;;;;;;1.50;1.20;;;10.40;98.00;;;;;;4993569;28;20492;-80
2024/02/24 11:00:53;;;;;;;1.93;1.20;;;10.60;98.00;;;;;;4993714;28;20457;-80
2024/02/24 11:03:21;;;;;;;2.00;1.30;;;10.70;98.00;;;;;;4993622;28;20459;-80
2024/02/24 11:05:49;;;;;;;4.40;1.30;;;10.80;98.00;;;;;;4993830;28;20485;-80
2024/02/24 11:08:36;;;;;;;1.93;1.20;;;10.80;98.00;;;;;;4976395;28;20502;-80
2024/02/24 11:11:06;;;;;;;1.30;1.20;;;10.90;98.00;;;;;;4993302;28;20452;-80
2024/02/24 11:13:34;;;;;;;1.20;1.10;;;11.20;98.00;;;;;;4975549;28;20460;-80
2024/02/24 11:16:01;;;;;;;1.20;1.10;;;11.50;98.00;;;;;;4993470;28;20445;-80
2024/02/24 11:19:02;;;;;;;1.93;1.30;;;11.30;98.00;;;;;;4992852;28;20492;-81
2024/02/24 11:21:59;;;;;;;2.33;1.20;;;11.50;98.00;;;;;;4951953;29;20463;-80
2024/02/24 11:24:32;;;;;;;2.07;1.23;;;12.10;98.00;;;;;;4935633;29;20454;-80
2024/02/24 11:27:00;;;;;;;2.10;1.30;;;11.90;98.00;;;;;;4979642;28;20900;-66
2024/02/24 11:29:29;;;;;;;1.20;1.10;;;12.30;98.00;;;;;;5008205;28;20531;-79
2024/02/24 11:32:22;;;;;;;1.43;1.03;;;12.60;98.00;;;;;;5012424;28;20467;-80
2024/02/24 11:34:50;;;;;;;1.50;1.07;;;12.40;98.00;;;;;;4998323;28;20461;-79
2024/02/24 11:37:18;;;;;;;1.27;1.07;;;12.40;98.00;;;;;;5012312;28;20453;-79
2024/02/24 11:39:47;;;;;;;1.50;1.33;;;12.40;98.00;;;;;;5012310;28;20853;-79
2024/02/24 11:42:14;;;;;;;1.20;1.10;;;12.40;98.00;;;;;;5012076;28;20462;-79
2024/02/24 11:44:48;;;;;;;1.30;1.10;;;12.10;98.00;;;;;;5009331;28;20459;-79
2024/02/24 11:47:18;;;;;;;1.27;1.20;;;11.70;98.00;;;;;;4981637;28;20467;-80
2024/02/24 11:49:47;;;;;;;1.20;1.10;;;11.50;98.00;;;;;;4981605;28;20469;-81
2024/02/24 11:52:15;;;;;;;1.40;1.23;;;11.40;98.00;;;;;;5214416;22;20520;-64
2024/02/24 11:54:43;;;;;;;1.93;1.20;;;11.40;98.00;;;;;;5039258;28;20617;-64
2024/02/24 11:59:38;;;;;;;1.40;1.10;;;12.30;98.00;;;;;;5008554;28;20992;-64
2024/02/24 12:02:07;;;;;;;1.43;1.17;;;13.10;98.00;;;;;;5011508;28;20487;-64
2024/02/24 12:04:34;;;;;;;1.40;1.20;;;13.90;98.00;;;;;;5011374;28;20524;-63
2024/02/24 12:07:05;;;;;;;1.40;1.20;;;14.50;97.40;;;;;;5011579;28;20454;-63
2024/02/24 12:09:32;;;;;;;1.60;1.20;;;15.10;94.10;;;;;;4993940;28;20489;-63
2024/02/24 12:11:59;;;;;;;1.30;1.20;;;15.70;96.50;;;;;;5011626;28;20463;-63
2024/02/24 12:14:29;;;;;;;1.53;1.20;;;15.80;93.10;;;;;;5011504;28;20458;-64
2024/02/24 12:16:59;;;;;;;1.30;1.30;;;15.00;91.90;;;;;;5011562;28;20541;-64
2024/02/24 12:19:30;;;;;;;2.37;1.60;;;14.10;94.30;;;;;;4994509;28;20486;-64
2024/02/24 12:21:57;;;;;;;1.87;1.30;;;13.60;95.60;;;;;;5011601;28;20489;-63
2024/02/24 12:24:28;;;;;;;1.93;1.40;;;13.40;96.70;;;;;;5011360;28;20501;-63
2024/02/24 12:27:00;;;;;;;1.37;1.20;;;13.20;96.60;;;;;;5011245;28;20540;-63
2024/02/24 12:29:28;;;;;;;1.23;1.10;;;13.10;95.20;;;;;;5011311;28;20452;-63
2024/02/24 12:31:56;;;;;;;1.20;1.10;;;13.40;95.00;;;;;;5011213;28;20463;-63
2024/02/24 12:34:23;;;;;;;3.67;1.20;;;13.90;94.30;;;;;;5011266;28;20459;-64
2024/02/24 12:36:56;;;;;;;1.20;1.20;;;13.90;93.10;;;;;;4993997;28;20460;-63
2024/02/24 12:39:25;;;;;;;1.73;1.17;;;14.20;93.80;;;;;;5011125;28;20581;-63
2024/02/24 12:41:53;;;;;;;1.50;1.17;;;14.40;94.00;;;;;;5010888;28;20587;-64
2024/02/24 12:44:20;;;;;;;1.20;1.10;;;14.20;92.10;;;;;;5011181;28;20479;-63
2024/02/24 12:46:47;;;;;;;1.30;1.10;;;13.90;92.90;;;;;;5011194;28;20458;-63
2024/02/24 12:49:14;;;;;;;1.20;1.10;;;13.60;91.90;;;;;;5011121;28;21022;-63
2024/02/24 12:51:41;;;;;;;1.40;1.20;;;13.10;91.80;;;;;;5011311;28;20452;-63
2024/02/24 12:54:11;;;;;;;1.70;1.20;;;12.60;94.00;;;;;;5011181;28;20950;-64
2024/02/24 12:56:38;;;;;;;1.50;1.10;;;12.20;95.20;;;;;;5011375;28;20540;-63
2024/02/24 12:59:05;;;;;;;2.67;1.10;;;11.80;97.30;;;;;;4977575;28;20486;-63
2024/02/24 13:01:33;;;;;;;1.30;1.10;;;11.60;97.20;;;;;;5011354;28;20983;-64
2024/02/24 13:04:00;;;;;;;3.00;1.20;;;11.50;98.00;;;;;;5011600;28;20976;-63